createdAt,value
2023-05-05T00:00:28.674Z,95322.00
2023-05-05T00:01:28.710Z,95326.00
2023-05-05T00:02:28.851Z,95326.00
2023-05-05T00:03:28.914Z,95326.00
2023-05-05T00:04:28.863Z,95324.00
2023-05-05T00:05:28.937Z,95324.00
2023-05-05T00:06:28.970Z,95324.00
2023-05-05T00:07:29.017Z,95322.00
2023-05-05T00:08:29.099Z,95320.00
2023-05-05T00:09:29.182Z,95320.00
2023-05-05T00:10:29.210Z,95320.00
2023-05-05T00:11:29.252Z,95322.00
2023-05-05T00:12:29.407Z,95318.00
2023-05-05T00:13:29.359Z,95318.00
2023-05-05T00:14:29.404Z,95318.00
2023-05-05T00:15:29.450Z,95316.00
2023-05-05T00:16:29.556Z,95320.00
2023-05-05T00:17:29.615Z,95318.00
2023-05-05T00:18:29.638Z,95320.00
2023-05-05T00:19:29.679Z,95316.00
2023-05-05T00:20:29.760Z,95318.00
2023-05-05T00:21:29.817Z,95320.00
2023-05-05T00:22:29.882Z,95320.00
2023-05-05T00:23:29.894Z,95322.00
2023-05-05T00:24:29.966Z,95320.00
2023-05-05T00:25:29.999Z,95322.00
2023-05-05T00:26:30.088Z,95322.00
2023-05-05T00:27:30.144Z,95320.00
2023-05-05T00:28:30.205Z,95320.00
2023-05-05T00:29:30.265Z,95320.00
2023-05-05T00:30:30.313Z,95322.00
2023-05-05T00:31:30.555Z,95320.00
2023-05-05T00:32:30.491Z,95320.00
2023-05-05T00:33:30.557Z,95318.00
2023-05-05T00:34:30.594Z,95318.00
2023-05-05T00:35:30.647Z,95318.00
2023-05-05T00:36:30.684Z,95318.00
2023-05-05T00:37:30.760Z,95320.00
2023-05-05T00:38:30.799Z,95320.00
2023-05-05T00:39:30.877Z,95320.00
2023-05-05T00:40:30.928Z,95322.00
2023-05-05T00:41:31.005Z,95324.00
2023-05-05T00:42:31.057Z,95322.00
2023-05-05T00:43:31.114Z,95324.00
2023-05-05T00:44:31.179Z,95324.00
2023-05-05T00:45:31.201Z,95324.00
2023-05-05T00:46:31.314Z,95324.00
2023-05-05T00:47:31.366Z,95326.00
2023-05-05T00:48:31.384Z,95328.00
2023-05-05T00:49:31.514Z,95326.00
2023-05-05T00:50:31.545Z,95326.00
2023-05-05T00:51:31.593Z,95324.00
2023-05-05T00:52:31.661Z,95324.00
2023-05-05T00:53:31.701Z,95324.00
2023-05-05T00:54:31.774Z,95324.00
2023-05-05T00:55:31.816Z,95318.00
2023-05-05T00:56:31.905Z,95318.00
2023-05-05T00:57:31.959Z,95320.00
2023-05-05T00:58:32.007Z,95316.00
2023-05-05T00:59:32.071Z,95320.00
2023-05-05T01:00:32.142Z,95318.00
2023-05-05T01:01:32.219Z,95320.00
2023-05-05T01:02:32.355Z,95320.00
2023-05-05T01:03:32.384Z,95316.00
2023-05-05T01:04:32.380Z,95320.00
2023-05-05T01:05:32.421Z,95320.00
2023-05-05T01:06:32.510Z,95316.00
2023-05-05T01:07:32.553Z,95314.00
2023-05-05T01:08:32.616Z,95314.00
2023-05-05T01:09:32.686Z,95312.00
2023-05-05T01:10:32.727Z,95312.00
2023-05-05T01:11:32.775Z,95314.00
2023-05-05T01:12:32.895Z,95314.00
2023-05-05T01:13:32.880Z,95314.00
2023-05-05T01:14:32.952Z,95316.00
2023-05-05T01:15:33.003Z,95312.00
2023-05-05T01:16:33.135Z,95312.00
2023-05-05T01:17:33.176Z,95312.00
2023-05-05T01:18:33.220Z,95316.00
2023-05-05T01:19:33.266Z,95314.00
2023-05-05T01:20:33.308Z,95314.00
2023-05-05T01:21:33.402Z,95316.00
2023-05-05T01:22:33.434Z,95316.00
2023-05-05T01:23:33.480Z,95314.00
2023-05-05T01:24:33.570Z,95316.00
2023-05-05T01:25:33.677Z,95318.00
2023-05-05T01:26:33.698Z,95316.00
2023-05-05T01:27:33.775Z,95320.00
2023-05-05T01:28:33.813Z,95320.00
2023-05-05T01:29:33.852Z,95322.00
2023-05-05T01:30:33.918Z,95320.00
2023-05-05T01:31:34.062Z,95320.00
2023-05-05T01:32:34.051Z,95320.00
2023-05-05T01:33:34.121Z,95320.00
2023-05-05T01:34:34.210Z,95318.00
2023-05-05T01:35:34.284Z,95320.00
2023-05-05T01:36:34.351Z,95322.00
2023-05-05T01:37:34.377Z,95324.00
2023-05-05T01:38:34.434Z,95326.00
2023-05-05T01:39:34.518Z,95326.00
2023-05-05T01:40:34.559Z,95328.00
2023-05-05T01:41:34.629Z,95324.00
2023-05-05T01:42:35.338Z,95328.00
2023-05-05T01:43:34.729Z,95324.00
2023-05-05T01:44:34.808Z,95324.00
2023-05-05T01:45:34.945Z,95324.00
2023-05-05T01:46:34.922Z,95326.00
2023-05-05T01:47:34.968Z,95326.00
2023-05-05T01:48:35.028Z,95330.00
2023-05-05T01:49:35.083Z,95328.00
2023-05-05T01:50:35.214Z,95330.00
2023-05-05T01:51:35.200Z,95328.00
2023-05-05T01:52:35.278Z,95326.00
2023-05-05T01:53:35.341Z,95326.00
2023-05-05T01:54:35.411Z,95322.00
2023-05-05T01:55:35.464Z,95324.00
2023-05-05T01:56:35.516Z,95326.00
2023-05-05T01:57:35.578Z,95328.00
2023-05-05T01:58:35.633Z,95332.00
2023-05-05T01:59:35.694Z,95332.00
2023-05-05T02:00:35.767Z,95334.00
2023-05-05T02:01:35.891Z,95334.00
2023-05-05T02:02:35.952Z,95332.00
2023-05-05T02:03:35.968Z,95334.00
2023-05-05T02:04:36.001Z,95330.00
2023-05-05T02:05:36.040Z,95330.00
2023-05-05T02:06:36.107Z,95328.00
2023-05-05T02:07:36.193Z,95330.00
2023-05-05T02:08:36.240Z,95332.00
2023-05-05T02:09:36.352Z,95334.00
2023-05-05T02:10:36.350Z,95334.00
2023-05-05T02:11:36.422Z,95336.00
2023-05-05T02:12:36.476Z,95336.00
2023-05-05T02:13:36.561Z,95336.00
2023-05-05T02:14:36.602Z,95336.00
2023-05-05T02:15:36.723Z,95334.00
2023-05-05T02:16:36.720Z,95338.00
2023-05-05T02:17:36.875Z,95338.00
2023-05-05T02:18:36.827Z,95338.00
2023-05-05T02:19:36.888Z,95340.00
2023-05-05T02:20:36.972Z,95342.00
2023-05-05T02:21:37.051Z,95340.00
2023-05-05T02:22:37.069Z,95340.00
2023-05-05T02:23:37.151Z,95342.00
2023-05-05T02:24:37.188Z,95344.00
2023-05-05T02:25:37.266Z,95340.00
2023-05-05T02:26:37.326Z,95342.00
2023-05-05T02:27:37.400Z,95340.00
2023-05-05T02:28:37.456Z,95338.00
2023-05-05T02:29:37.508Z,95340.00
2023-05-05T02:30:37.586Z,95342.00
2023-05-05T02:31:37.667Z,95344.00
2023-05-05T02:32:37.715Z,95344.00
2023-05-05T02:33:37.720Z,95342.00
2023-05-05T02:34:37.773Z,95340.00
2023-05-05T02:35:37.822Z,95338.00
2023-05-05T02:36:37.906Z,95342.00
2023-05-05T02:37:37.939Z,95342.00
2023-05-05T02:38:37.999Z,95344.00
2023-05-05T02:39:38.051Z,95344.00
2023-05-05T02:40:38.115Z,95347.00
2023-05-05T02:41:38.179Z,95349.00
2023-05-05T02:42:38.307Z,95351.00
2023-05-05T02:43:38.278Z,95351.00
2023-05-05T02:44:38.359Z,95344.00
2023-05-05T02:45:38.373Z,95345.00
2023-05-05T02:46:38.554Z,95345.00
2023-05-05T02:47:38.630Z,95347.00
2023-05-05T02:48:38.601Z,95349.00
2023-05-05T02:49:38.638Z,95347.00
2023-05-05T02:50:38.699Z,95349.00
2023-05-05T02:51:38.752Z,95349.00
2023-05-05T02:52:38.835Z,95347.00
2023-05-05T02:53:38.896Z,95349.00
2023-05-05T02:54:38.926Z,95351.00
2023-05-05T02:55:38.962Z,95349.00
2023-05-05T02:56:39.027Z,95347.00
2023-05-05T02:57:39.060Z,95347.00
2023-05-05T02:58:39.117Z,95347.00
2023-05-05T02:59:39.153Z,95347.00
2023-05-05T03:00:39.208Z,95349.00
2023-05-05T03:01:39.300Z,95347.00
2023-05-05T03:02:39.360Z,95349.00
2023-05-05T03:03:39.405Z,95353.00
2023-05-05T03:04:39.390Z,95347.00
2023-05-05T03:05:39.430Z,95349.00
2023-05-05T03:06:39.433Z,95355.00
2023-05-05T03:07:39.475Z,95353.00
2023-05-05T03:08:39.538Z,95353.00
2023-05-05T03:09:39.568Z,95353.00
2023-05-05T03:10:39.611Z,95353.00
2023-05-05T03:11:39.620Z,95347.00
2023-05-05T03:12:39.686Z,95349.00
2023-05-05T03:13:39.718Z,95345.00
2023-05-05T03:14:39.728Z,95349.00
2023-05-05T03:15:39.829Z,95351.00
2023-05-05T03:16:39.951Z,95347.00
2023-05-05T03:17:39.913Z,95353.00
2023-05-05T03:18:39.941Z,95349.00
2023-05-05T03:19:39.951Z,95349.00
2023-05-05T03:20:40.018Z,95349.00
2023-05-05T03:21:40.089Z,95351.00
2023-05-05T03:22:40.113Z,95349.00
2023-05-05T03:23:40.174Z,95349.00
2023-05-05T03:24:40.251Z,95351.00
2023-05-05T03:25:40.283Z,95347.00
2023-05-05T03:26:40.322Z,95347.00
2023-05-05T03:27:40.367Z,95349.00
2023-05-05T03:28:40.382Z,95347.00
2023-05-05T03:29:40.432Z,95347.00
2023-05-05T03:30:40.465Z,95345.00
2023-05-05T03:31:40.545Z,95345.00
2023-05-05T03:32:40.566Z,95347.00
2023-05-05T03:33:40.556Z,95349.00
2023-05-05T03:34:40.567Z,95347.00
2023-05-05T03:35:41.876Z,95349.00
2023-05-05T03:36:40.597Z,95349.00
2023-05-05T03:37:40.580Z,95349.00
2023-05-05T03:38:40.553Z,95349.00
2023-05-05T03:39:40.603Z,95351.00
2023-05-05T03:40:44.248Z,95351.00
2023-05-05T03:41:40.638Z,95351.00
2023-05-05T03:42:40.628Z,95351.00
2023-05-05T03:43:40.596Z,95349.00
2023-05-05T03:44:40.613Z,95349.00
2023-05-05T03:45:40.629Z,95349.00
2023-05-05T03:46:40.597Z,95347.00
2023-05-05T03:47:40.581Z,95347.00
2023-05-05T03:48:40.559Z,95349.00
2023-05-05T03:49:40.592Z,95347.00
2023-05-05T03:50:40.579Z,95347.00
2023-05-05T03:51:40.551Z,95347.00
2023-05-05T03:52:40.552Z,95345.00
2023-05-05T03:53:40.535Z,95347.00
2023-05-05T03:54:40.566Z,95349.00
2023-05-05T03:55:40.558Z,95347.00
2023-05-05T03:56:40.557Z,95347.00
2023-05-05T03:57:40.520Z,95347.00
2023-05-05T03:58:40.506Z,95347.00
2023-05-05T03:59:40.522Z,95345.00
2023-05-05T04:00:40.485Z,95345.00
2023-05-05T04:01:40.495Z,95344.00
2023-05-05T04:02:40.532Z,95345.00
2023-05-05T04:03:40.523Z,95345.00
2023-05-05T04:04:40.480Z,95347.00
2023-05-05T04:05:40.474Z,95347.00
2023-05-05T04:06:40.446Z,95349.00
2023-05-05T04:07:40.458Z,95349.00
2023-05-05T04:08:40.469Z,95351.00
2023-05-05T04:09:40.417Z,95351.00
2023-05-05T04:10:40.428Z,95349.00
2023-05-05T04:11:40.460Z,95349.00
2023-05-05T04:12:40.444Z,95347.00
2023-05-05T04:13:40.433Z,95347.00
2023-05-05T04:14:40.420Z,95349.00
2023-05-05T04:15:40.387Z,95347.00
2023-05-05T04:16:40.393Z,95347.00
2023-05-05T04:17:40.398Z,95347.00
2023-05-05T04:18:40.386Z,95349.00
2023-05-05T04:19:40.444Z,95349.00
2023-05-05T04:20:40.368Z,95351.00
2023-05-05T04:21:40.390Z,95351.00
2023-05-05T04:22:40.366Z,95351.00
2023-05-05T04:23:40.339Z,95353.00
2023-05-05T04:24:40.325Z,95351.00
2023-05-05T04:25:40.325Z,95353.00
2023-05-05T04:26:40.310Z,95349.00
2023-05-05T04:27:40.321Z,95351.00
2023-05-05T04:28:40.354Z,95351.00
2023-05-05T04:29:40.374Z,95351.00
2023-05-05T04:30:40.415Z,95355.00
2023-05-05T04:31:40.483Z,95353.00
2023-05-05T04:32:40.512Z,95355.00
2023-05-05T04:33:40.507Z,95357.00
2023-05-05T04:34:40.514Z,95357.00
2023-05-05T04:35:40.569Z,95357.00
2023-05-05T04:36:40.653Z,95357.00
2023-05-05T04:37:40.596Z,95363.00
2023-05-05T04:38:40.589Z,95359.00
2023-05-05T04:39:40.566Z,95359.00
2023-05-05T04:40:40.555Z,95361.00
2023-05-05T04:41:40.583Z,95359.00
2023-05-05T04:42:40.551Z,95359.00
2023-05-05T04:43:40.532Z,95361.00
2023-05-05T04:44:40.553Z,95361.00
2023-05-05T04:45:40.532Z,95361.00
2023-05-05T04:46:40.793Z,95363.00
2023-05-05T04:47:40.773Z,95365.00
2023-05-05T04:48:40.680Z,95367.00
2023-05-05T04:49:40.731Z,95367.00
2023-05-05T04:50:40.804Z,95369.00
2023-05-05T04:51:40.892Z,95369.00
2023-05-05T04:52:40.871Z,95369.00
2023-05-05T04:53:40.900Z,95367.00
2023-05-05T04:54:40.939Z,95369.00
2023-05-05T04:55:40.894Z,95367.00
2023-05-05T04:56:40.927Z,95369.00
2023-05-05T04:57:40.934Z,95369.00
2023-05-05T04:58:40.919Z,95375.00
2023-05-05T04:59:40.916Z,95375.00
2023-05-05T05:00:40.918Z,95373.00
2023-05-05T05:01:40.977Z,95377.00
2023-05-05T05:02:41.018Z,95375.00
2023-05-05T05:03:40.947Z,95375.00
2023-05-05T05:04:40.940Z,95379.00
2023-05-05T05:05:40.947Z,95381.00
2023-05-05T05:06:40.931Z,95379.00
2023-05-05T05:07:40.976Z,95383.00
2023-05-05T05:08:40.946Z,95381.00
2023-05-05T05:09:40.956Z,95381.00
2023-05-05T05:10:40.964Z,95381.00
2023-05-05T05:11:40.961Z,95385.00
2023-05-05T05:12:40.961Z,95385.00
2023-05-05T05:13:40.941Z,95385.00
2023-05-05T05:14:40.964Z,95387.00
2023-05-05T05:15:40.960Z,95383.00
2023-05-05T05:16:41.050Z,95387.00
2023-05-05T05:17:40.997Z,95385.00
2023-05-05T05:18:40.996Z,95383.00
2023-05-05T05:19:40.958Z,95383.00
2023-05-05T05:20:40.963Z,95379.00
2023-05-05T05:21:40.973Z,95379.00
2023-05-05T05:22:41.014Z,95381.00
2023-05-05T05:23:40.981Z,95379.00
2023-05-05T05:24:40.975Z,95379.00
2023-05-05T05:25:40.986Z,95379.00
2023-05-05T05:26:40.994Z,95381.00
2023-05-05T05:27:40.961Z,95383.00
2023-05-05T05:28:40.964Z,95379.00
2023-05-05T05:29:40.958Z,95379.00
2023-05-05T05:30:40.967Z,95381.00
2023-05-05T05:31:41.030Z,95381.00
2023-05-05T05:32:40.977Z,95379.00
2023-05-05T05:33:40.966Z,95381.00
2023-05-05T05:34:40.952Z,95385.00
2023-05-05T05:35:40.964Z,95383.00
2023-05-05T05:36:40.941Z,95383.00
2023-05-05T05:37:42.969Z,95381.00
2023-05-05T05:38:40.933Z,95385.00
2023-05-05T05:39:43.312Z,95385.00
2023-05-05T05:40:40.914Z,95383.00
2023-05-05T05:41:40.939Z,95385.00
2023-05-05T05:42:40.889Z,95385.00
2023-05-05T05:43:40.891Z,95385.00
2023-05-05T05:44:40.919Z,95387.00
2023-05-05T05:45:40.977Z,95385.00
2023-05-05T05:46:40.987Z,95385.00
2023-05-05T05:47:40.921Z,95389.00
2023-05-05T05:48:40.863Z,95387.00
2023-05-05T05:49:40.851Z,95389.00
2023-05-05T05:50:40.848Z,95392.00
2023-05-05T05:51:40.846Z,95391.00
2023-05-05T05:52:40.856Z,95389.00
2023-05-05T05:53:40.875Z,95391.00
2023-05-05T05:54:40.841Z,95389.00
2023-05-05T05:55:40.803Z,95391.00
2023-05-05T05:56:40.814Z,95391.00
2023-05-05T05:57:40.783Z,95391.00
2023-05-05T05:58:40.808Z,95391.00
2023-05-05T05:59:40.796Z,95389.00
2023-05-05T06:00:40.783Z,95396.00
2023-05-05T06:01:40.917Z,95392.00
2023-05-05T06:02:40.850Z,95394.00
2023-05-05T06:03:40.901Z,95392.00
2023-05-05T06:04:40.927Z,95394.00
2023-05-05T06:05:40.751Z,95392.00
2023-05-05T06:06:40.930Z,95394.00
2023-05-05T06:07:40.736Z,95396.00
2023-05-05T06:08:40.708Z,95392.00
2023-05-05T06:09:40.727Z,95394.00
2023-05-05T06:10:40.703Z,95392.00
2023-05-05T06:11:40.928Z,95392.00
2023-05-05T06:12:40.754Z,95392.00
2023-05-05T06:13:40.676Z,95394.00
2023-05-05T06:14:40.705Z,95396.00
2023-05-05T06:15:40.809Z,95394.00
2023-05-05T06:16:40.693Z,95398.00
2023-05-05T06:17:40.699Z,95394.00
2023-05-05T06:18:40.634Z,95392.00
2023-05-05T06:19:40.673Z,95392.00
2023-05-05T06:20:40.628Z,95391.00
2023-05-05T06:21:40.650Z,95391.00
2023-05-05T06:22:40.633Z,95391.00
2023-05-05T06:23:40.618Z,95389.00
2023-05-05T06:24:40.615Z,95387.00
2023-05-05T06:25:40.595Z,95387.00
2023-05-05T06:26:40.609Z,95387.00
2023-05-05T06:27:40.601Z,95389.00
2023-05-05T06:28:40.587Z,95387.00
2023-05-05T06:29:40.597Z,95385.00
2023-05-05T06:30:40.576Z,95387.00
2023-05-05T06:31:40.681Z,95385.00
2023-05-05T06:32:40.620Z,95387.00
2023-05-05T06:33:40.590Z,95385.00
2023-05-05T06:34:40.532Z,95381.00
2023-05-05T06:35:40.570Z,95379.00
2023-05-05T06:36:40.967Z,95379.00
2023-05-05T06:37:40.537Z,95379.00
2023-05-05T06:38:40.523Z,95379.00
2023-05-05T06:39:40.518Z,95375.00
2023-05-05T06:40:40.524Z,95373.00
2023-05-05T06:41:40.516Z,95373.00
2023-05-05T06:42:40.494Z,95367.00
2023-05-05T06:43:40.496Z,95367.00
2023-05-05T06:44:40.522Z,95369.00
2023-05-05T06:45:41.055Z,95365.00
2023-05-05T06:46:40.944Z,95365.00
2023-05-05T06:47:40.493Z,95361.00
2023-05-05T06:48:40.452Z,95361.00
2023-05-05T06:49:40.454Z,95361.00
2023-05-05T06:50:40.432Z,95359.00
2023-05-05T06:51:42.213Z,95361.00
2023-05-05T06:52:40.423Z,95359.00
2023-05-05T06:53:40.455Z,95359.00
2023-05-05T06:54:40.466Z,95357.00
2023-05-05T06:55:40.464Z,95357.00
2023-05-05T06:56:40.507Z,95359.00
2023-05-05T06:57:40.525Z,95357.00
2023-05-05T06:58:40.526Z,95359.00
2023-05-05T06:59:40.754Z,95359.00
2023-05-05T07:00:40.578Z,95357.00
2023-05-05T07:01:40.971Z,95357.00
2023-05-05T07:02:40.654Z,95357.00
2023-05-05T07:03:40.679Z,95355.00
2023-05-05T07:04:40.640Z,95355.00
2023-05-05T07:05:40.676Z,95357.00
2023-05-05T07:06:40.959Z,95357.00
2023-05-05T07:07:40.699Z,95355.00
2023-05-05T07:08:40.720Z,95355.00
2023-05-05T07:09:40.698Z,95353.00
2023-05-05T07:10:41.408Z,95355.00
2023-05-05T07:11:40.721Z,95353.00
2023-05-05T07:12:40.735Z,95349.00
2023-05-05T07:13:40.736Z,95349.00
2023-05-05T07:14:40.741Z,95351.00
2023-05-05T07:15:40.856Z,95347.00
2023-05-05T07:16:40.797Z,95345.00
2023-05-05T07:17:40.702Z,95345.00
2023-05-05T07:18:40.709Z,95340.00
2023-05-05T07:19:40.674Z,95340.00
2023-05-05T07:20:40.729Z,95338.00
2023-05-05T07:21:40.711Z,95336.00
2023-05-05T07:22:40.739Z,95338.00
2023-05-05T07:23:40.692Z,95336.00
2023-05-05T07:24:40.676Z,95332.00
2023-05-05T07:25:40.717Z,95334.00
2023-05-05T07:26:40.697Z,95334.00
2023-05-05T07:27:40.707Z,95332.00
2023-05-05T07:28:40.701Z,95330.00
2023-05-05T07:29:40.708Z,95328.00
2023-05-05T07:30:40.717Z,95332.00
2023-05-05T07:31:40.926Z,95332.00
2023-05-05T07:32:40.761Z,95330.00
2023-05-05T07:33:40.702Z,95330.00
2023-05-05T07:34:40.691Z,95326.00
2023-05-05T07:35:40.679Z,95324.00
2023-05-05T07:36:40.681Z,95326.00
2023-05-05T07:37:40.669Z,95322.00
2023-05-05T07:38:40.703Z,95322.00
2023-05-05T07:39:40.678Z,95320.00
2023-05-05T07:40:40.660Z,95322.00
2023-05-05T07:41:40.961Z,95324.00
2023-05-05T07:42:40.676Z,95322.00
2023-05-05T07:43:41.697Z,95318.00
2023-05-05T07:44:40.684Z,95314.00
2023-05-05T07:45:40.798Z,95314.00
2023-05-05T07:46:40.739Z,95314.00
2023-05-05T07:47:40.875Z,95310.00
2023-05-05T07:48:40.744Z,95308.00
2023-05-05T07:49:40.751Z,95306.00
2023-05-05T07:50:40.723Z,95304.00
2023-05-05T07:51:40.770Z,95302.00
2023-05-05T07:53:40.793Z,95298.00
2023-05-05T07:54:40.749Z,95295.00
2023-05-05T07:55:40.754Z,95295.00
2023-05-05T07:56:40.740Z,95297.00
2023-05-05T07:57:40.735Z,95297.00
2023-05-05T07:58:40.716Z,95295.00
2023-05-05T07:59:40.714Z,95297.00
2023-05-05T08:00:40.708Z,95293.00
2023-05-05T08:01:40.751Z,95289.00
2023-05-05T08:02:40.705Z,95291.00
2023-05-05T08:03:40.880Z,95293.00
2023-05-05T08:04:40.700Z,95291.00
2023-05-05T08:05:40.830Z,95289.00
2023-05-05T08:06:40.662Z,95291.00
2023-05-05T08:07:40.676Z,95295.00
2023-05-05T08:08:40.680Z,95293.00
2023-05-05T08:09:40.661Z,95293.00
2023-05-05T08:10:40.651Z,95291.00
2023-05-05T08:11:40.636Z,95293.00
2023-05-05T08:12:40.779Z,95289.00
2023-05-05T08:13:40.649Z,95287.00
2023-05-05T08:14:40.596Z,95287.00
2023-05-05T08:15:40.669Z,95285.00
2023-05-05T08:16:40.584Z,95283.00
2023-05-05T08:17:40.626Z,95279.00
2023-05-05T08:18:40.611Z,95281.00
2023-05-05T08:19:40.678Z,95277.00
2023-05-05T08:20:40.660Z,95275.00
2023-05-05T08:21:40.581Z,95273.00
2023-05-05T08:22:40.586Z,95275.00
2023-05-05T08:23:40.560Z,95273.00
2023-05-05T08:24:40.557Z,95275.00
2023-05-05T08:25:40.550Z,95273.00
2023-05-05T08:26:40.541Z,95273.00
2023-05-05T08:27:40.533Z,95273.00
2023-05-05T08:28:40.568Z,95269.00
2023-05-05T08:29:40.535Z,95269.00
2023-05-05T08:30:40.493Z,95267.00
2023-05-05T08:31:40.546Z,95265.00
2023-05-05T08:32:40.530Z,95259.00
2023-05-05T08:33:40.471Z,95257.00
2023-05-05T08:34:40.498Z,95257.00
2023-05-05T08:35:40.573Z,95257.00
2023-05-05T08:36:40.473Z,95253.00
2023-05-05T08:37:40.516Z,95253.00
2023-05-05T08:38:40.461Z,95251.00
2023-05-05T08:39:40.432Z,95251.00
2023-05-05T08:40:40.447Z,95246.00
2023-05-05T08:41:40.409Z,95248.00
2023-05-05T08:42:40.489Z,95246.00
2023-05-05T08:43:40.429Z,95242.00
2023-05-05T08:44:40.408Z,95242.00
2023-05-05T08:45:40.419Z,95240.00
2023-05-05T08:46:40.437Z,95240.00
2023-05-05T08:47:40.455Z,95236.00
2023-05-05T08:48:40.399Z,95238.00
2023-05-05T08:49:40.359Z,95234.00
2023-05-05T08:50:40.365Z,95234.00
2023-05-05T08:51:40.436Z,95228.00
2023-05-05T08:52:40.513Z,95228.00
2023-05-05T08:53:40.356Z,95226.00
2023-05-05T08:54:40.327Z,95228.00
2023-05-05T08:55:40.339Z,95224.00
2023-05-05T08:56:40.316Z,95226.00
2023-05-05T08:57:40.322Z,95228.00
2023-05-05T08:58:40.307Z,95226.00
2023-05-05T08:59:40.312Z,95224.00
2023-05-05T09:00:40.364Z,95222.00
2023-05-05T09:01:40.273Z,95222.00
2023-05-05T09:02:40.324Z,95220.00
2023-05-05T09:03:40.259Z,95216.00
2023-05-05T09:04:40.241Z,95216.00
2023-05-05T09:05:40.309Z,95216.00
2023-05-05T09:06:40.276Z,95216.00
2023-05-05T09:07:40.484Z,95212.00
2023-05-05T09:08:40.257Z,95212.00
2023-05-05T09:09:40.255Z,95212.00
2023-05-05T09:10:40.246Z,95210.00
2023-05-05T09:11:40.222Z,95210.00
2023-05-05T09:12:40.244Z,95208.00
2023-05-05T09:13:40.211Z,95204.00
2023-05-05T09:14:40.168Z,95206.00
2023-05-05T09:15:40.195Z,95208.00
2023-05-05T09:16:40.294Z,95202.00
2023-05-05T09:17:40.316Z,95202.00
2023-05-05T09:18:40.308Z,95199.00
2023-05-05T09:19:40.327Z,95199.00
2023-05-05T09:20:40.385Z,95199.00
2023-05-05T09:21:40.391Z,95195.00
2023-05-05T09:22:40.497Z,95191.00
2023-05-05T09:23:40.597Z,95195.00
2023-05-05T09:24:40.498Z,95191.00
2023-05-05T09:25:40.529Z,95191.00
2023-05-05T09:26:40.535Z,95191.00
2023-05-05T09:27:41.028Z,95187.00
2023-05-05T09:28:40.668Z,95183.00
2023-05-05T09:29:40.673Z,95185.00
2023-05-05T09:30:40.730Z,95183.00
2023-05-05T09:31:40.732Z,95183.00
2023-05-05T09:32:41.026Z,95181.00
2023-05-05T09:33:40.796Z,95179.00
2023-05-05T09:34:40.841Z,95179.00
2023-05-05T09:35:40.836Z,95175.00
2023-05-05T09:36:40.912Z,95175.00
2023-05-05T09:37:40.894Z,95175.00
2023-05-05T09:38:40.920Z,95175.00
2023-05-05T09:39:40.979Z,95175.00
2023-05-05T09:40:40.916Z,95175.00
2023-05-05T09:41:40.910Z,95175.00
2023-05-05T09:42:41.058Z,95173.00
2023-05-05T09:43:40.951Z,95171.00
2023-05-05T09:44:40.936Z,95169.00
2023-05-05T09:45:40.935Z,95169.00
2023-05-05T09:46:40.930Z,95165.00
2023-05-05T09:47:40.982Z,95167.00
2023-05-05T09:48:40.937Z,95165.00
2023-05-05T09:49:40.913Z,95163.00
2023-05-05T09:50:40.935Z,95163.00
2023-05-05T09:51:40.910Z,95163.00
2023-05-05T09:52:40.924Z,95161.00
2023-05-05T09:53:41.020Z,95161.00
2023-05-05T09:54:41.057Z,95161.00
2023-05-05T09:55:41.185Z,95159.00
2023-05-05T09:56:41.154Z,95159.00
2023-05-05T09:57:41.518Z,95157.00
2023-05-05T09:58:41.327Z,95159.00
2023-05-05T09:59:41.347Z,95159.00
2023-05-05T10:00:41.382Z,95157.00
2023-05-05T10:01:41.483Z,95153.00
2023-05-05T10:02:41.529Z,95149.00
2023-05-05T10:03:41.551Z,95151.00
2023-05-05T10:04:41.685Z,95153.00
2023-05-05T10:05:41.698Z,95151.00
2023-05-05T10:06:41.754Z,95149.00
2023-05-05T10:07:41.796Z,95138.00
2023-05-05T10:08:41.837Z,95140.00
2023-05-05T10:09:41.920Z,95138.00
2023-05-05T10:10:41.942Z,95142.00
2023-05-05T10:11:42.147Z,95140.00
2023-05-05T10:12:42.098Z,95140.00
2023-05-05T10:13:42.264Z,95136.00
2023-05-05T10:14:42.145Z,95132.00
2023-05-05T10:15:42.227Z,95132.00
2023-05-05T10:16:42.270Z,95130.00
2023-05-05T10:17:50.827Z,95122.00
2023-05-05T10:18:43.307Z,95124.00
2023-05-05T10:19:42.256Z,95124.00
2023-05-05T10:20:42.268Z,95120.00
2023-05-05T10:21:42.394Z,95118.00
2023-05-05T10:22:42.239Z,95118.00
2023-05-05T10:23:42.236Z,95118.00
2023-05-05T10:24:42.212Z,95116.00
2023-05-05T10:25:42.200Z,95120.00
2023-05-05T10:26:42.199Z,95114.00
2023-05-05T10:27:42.184Z,95112.00
2023-05-05T10:28:42.211Z,95108.00
2023-05-05T10:29:42.160Z,95104.00
2023-05-05T10:30:42.208Z,95104.00
2023-05-05T10:31:42.213Z,95104.00
2023-05-05T10:33:42.339Z,95098.00
2023-05-05T10:34:42.264Z,95095.00
2023-05-05T10:35:42.225Z,95095.00
2023-05-05T10:36:42.187Z,95093.00
2023-05-05T10:37:42.160Z,95087.00
2023-05-05T10:38:42.170Z,95089.00
2023-05-05T10:39:42.156Z,95083.00
2023-05-05T10:40:42.181Z,95081.00
2023-05-05T10:41:42.139Z,95077.00
2023-05-05T10:42:42.158Z,95077.00
2023-05-05T10:43:42.132Z,95077.00
2023-05-05T10:44:42.145Z,95075.00
2023-05-05T10:45:42.259Z,95075.00
2023-05-05T10:46:42.270Z,95073.00
2023-05-05T10:47:42.154Z,95071.00
2023-05-05T10:48:42.159Z,95065.00
2023-05-05T10:49:42.100Z,95071.00
2023-05-05T10:50:42.084Z,95069.00
2023-05-05T10:51:42.116Z,95067.00
2023-05-05T10:52:42.094Z,95063.00
2023-05-05T10:53:42.075Z,95059.00
2023-05-05T10:54:42.075Z,95057.00
2023-05-05T10:55:42.052Z,95055.00
2023-05-05T10:56:42.045Z,95055.00
2023-05-05T10:57:42.044Z,95051.00
2023-05-05T10:58:58.325Z,95051.00
2023-05-05T10:59:43.097Z,95048.00
2023-05-05T11:00:42.060Z,95051.00
2023-05-05T11:01:42.001Z,95048.00
2023-05-05T11:02:42.057Z,95046.00
2023-05-05T11:03:42.030Z,95046.00
2023-05-05T11:04:41.986Z,95044.00
2023-05-05T11:05:41.980Z,95044.00
2023-05-05T11:06:41.976Z,95040.00
2023-05-05T11:07:42.006Z,95038.00
2023-05-05T11:08:41.957Z,95036.00
2023-05-05T11:09:41.978Z,95032.00
2023-05-05T11:10:41.979Z,95032.00
2023-05-05T11:11:41.947Z,95032.00
2023-05-05T11:12:41.952Z,95030.00
2023-05-05T11:13:41.944Z,95028.00
2023-05-05T11:14:41.927Z,95026.00
2023-05-05T11:15:42.057Z,95024.00
2023-05-05T11:16:42.012Z,95020.00
2023-05-05T11:17:41.899Z,95014.00
2023-05-05T11:18:41.907Z,95008.00
2023-05-05T11:19:41.942Z,95006.00
2023-05-05T11:20:41.867Z,95006.00
2023-05-05T11:21:41.889Z,95002.00
2023-05-05T11:22:41.918Z,95001.00
2023-05-05T11:23:41.877Z,95002.00
2023-05-05T11:24:41.857Z,95001.00
2023-05-05T11:25:41.855Z,95001.00
2023-05-05T11:26:41.865Z,94999.00
2023-05-05T11:27:41.862Z,95004.00
2023-05-05T11:28:42.062Z,94999.00
2023-05-05T11:29:41.836Z,94997.00
2023-05-05T11:30:41.863Z,94991.00
2023-05-05T11:31:41.938Z,94993.00
2023-05-05T11:32:41.824Z,94989.00
2023-05-05T11:33:42.062Z,94991.00
2023-05-05T11:34:41.825Z,94989.00
2023-05-05T11:35:41.804Z,94983.00
2023-05-05T11:36:41.786Z,94987.00
2023-05-05T11:37:41.760Z,94981.00
2023-05-05T11:38:41.754Z,94985.00
2023-05-05T11:39:41.796Z,94979.00
2023-05-05T11:40:41.839Z,94977.00
2023-05-05T11:41:41.856Z,94973.00
2023-05-05T11:42:41.887Z,94971.00
2023-05-05T11:43:41.902Z,94965.00
2023-05-05T11:44:41.915Z,94965.00
2023-05-05T11:45:41.969Z,94963.00
2023-05-05T11:46:42.041Z,94963.00